Time;durP1;ratioP1;P1;durP2;ratioP2;P2;SDS_P1;SDS_P2;PMS_P1;PMS_P2;Temp;Humidity;BMP_temperature;BMP_pressure;BME280_temperature;BME280_humidity;BME280_pressure;Samples;Min_cycle;Max_cycle;Signal;HPM_P1;HPM_P2
2023/01/14 00:01:30;;;;;;;3.58;1.30;;;;;;;;;;6342137;22;20178;-64
2023/01/14 00:03:57;;;;;;;3.58;1.13;;;;;;;;;;6341819;22;20161;-64
2023/01/14 00:06:24;;;;;;;6.25;1.70;;;;;;;;;;6342502;22;20142;-64
2023/01/14 00:08:54;;;;;;;5.32;1.30;;;;;;;;;;6341919;22;20489;-64
2023/01/14 00:11:45;;;;;;;4.57;1.27;;;;;;;;;;6342071;22;20492;-63
2023/01/14 00:14:06;;;;;;;6.07;1.10;;;;;;;;;;6341580;22;20244;-64
2023/01/14 00:16:32;;;;;;;8.57;1.75;;;;;;;;;;6341961;22;20202;-64
2023/01/14 00:18:58;;;;;;;3.90;1.20;;;;;;;;;;6341723;22;20220;-65
2023/01/14 00:21:24;;;;;;;5.78;1.10;;;;;;;;;;6341414;22;20159;-64
2023/01/14 00:23:53;;;;;;;7.78;1.48;;;;;;;;;;6341774;22;20153;-66
2023/01/14 00:26:19;;;;;;;8.20;1.08;;;;;;;;;;6341302;22;20327;-65
2023/01/14 00:28:48;;;;;;;3.25;0.95;;;;;;;;;;6341322;22;20255;-66
2023/01/14 00:31:16;;;;;;;4.95;1.00;;;;;;;;;;6340988;22;20647;-64
2023/01/14 00:33:42;;;;;;;2.63;0.80;;;;;;;;;;6341333;22;20263;-65
2023/01/14 00:36:11;;;;;;;4.50;0.90;;;;;;;;;;6341306;22;20167;-65
2023/01/14 00:38:37;;;;;;;6.13;1.48;;;;;;;;;;6341057;22;20130;-65
2023/01/14 00:41:06;;;;;;;4.28;1.13;;;;;;;;;;6341128;22;20158;-65
2023/01/14 00:43:33;;;;;;;2.85;0.80;;;;;;;;;;6341494;22;20200;-65
2023/01/14 00:45:59;;;;;;;7.32;1.00;;;;;;;;;;6341539;22;20142;-65
2023/01/14 00:48:25;;;;;;;6.20;1.25;;;;;;;;;;6341197;22;20212;-65
2023/01/14 00:50:51;;;;;;;4.65;1.00;;;;;;;;;;6341260;22;20217;-64
2023/01/14 00:53:17;;;;;;;8.93;1.85;;;;;;;;;;6341336;22;20142;-65
2023/01/14 00:55:43;;;;;;;4.05;1.00;;;;;;;;;;6340998;22;20557;-65
2023/01/14 00:58:09;;;;;;;7.93;1.48;;;;;;;;;;6341466;22;20141;-65
2023/01/14 01:00:34;;;;;;;4.43;1.20;;;;;;;;;;6340961;22;20495;-65
2023/01/14 01:03:00;;;;;;;4.68;1.20;;;;;;;;;;6341553;22;20559;-65
2023/01/14 01:05:26;;;;;;;5.82;1.00;;;;;;;;;;6341308;22;20564;-66
2023/01/14 01:07:52;;;;;;;4.05;1.02;;;;;;;;;;6341173;22;20202;-65
2023/01/14 01:10:18;;;;;;;6.05;1.00;;;;;;;;;;6340940;22;20161;-65
2023/01/14 01:12:44;;;;;;;5.72;1.63;;;;;;;;;;6341050;22;20218;-65
2023/01/14 01:15:10;;;;;;;9.02;1.17;;;;;;;;;;6340828;22;20443;-65
2023/01/14 01:17:36;;;;;;;4.65;1.02;;;;;;;;;;6342535;22;20142;-65
2023/01/14 01:20:02;;;;;;;5.20;0.88;;;;;;;;;;6341367;22;20146;-65
2023/01/14 01:22:29;;;;;;;2.50;0.90;;;;;;;;;;6340803;22;20150;-65
2023/01/14 01:24:55;;;;;;;6.75;1.23;;;;;;;;;;6341186;22;20236;-65
2023/01/14 01:27:21;;;;;;;5.38;1.48;;;;;;;;;;6340939;22;20170;-64
2023/01/14 01:29:47;;;;;;;4.47;0.93;;;;;;;;;;6340806;22;20438;-64
2023/01/14 01:32:13;;;;;;;6.38;1.30;;;;;;;;;;6341189;22;20146;-65
2023/01/14 01:34:38;;;;;;;6.50;1.15;;;;;;;;;;6340644;22;20172;-64
2023/01/14 01:37:04;;;;;;;5.18;0.85;;;;;;;;;;6341192;22;20142;-64
2023/01/14 01:39:30;;;;;;;4.30;1.25;;;;;;;;;;6341221;22;20213;-65
2023/01/14 01:41:56;;;;;;;4.57;0.82;;;;;;;;;;6341049;22;20235;-66
2023/01/14 01:44:22;;;;;;;3.40;0.90;;;;;;;;;;6340978;22;20152;-64
2023/01/14 01:46:48;;;;;;;3.95;0.88;;;;;;;;;;6340833;22;20149;-65
2023/01/14 01:49:22;;;;;;;4.07;0.82;;;;;;;;;;6340670;22;20143;-65
2023/01/14 01:51:52;;;;;;;4.00;1.05;;;;;;;;;;6341144;22;20237;-66
2023/01/14 01:54:20;;;;;;;3.95;1.23;;;;;;;;;;6340900;22;20231;-66
2023/01/14 01:56:47;;;;;;;4.20;1.00;;;;;;;;;;6341275;22;20545;-64
2023/01/14 01:59:14;;;;;;;6.57;1.00;;;;;;;;;;6341222;22;20213;-65
2023/01/14 02:01:40;;;;;;;5.22;1.05;;;;;;;;;;6343263;22;20610;-64
2023/01/14 02:04:07;;;;;;;3.28;1.20;;;;;;;;;;6343221;22;20486;-64
2023/01/14 02:06:33;;;;;;;6.78;1.38;;;;;;;;;;6342594;22;20557;-65
2023/01/14 02:08:59;;;;;;;7.10;1.42;;;;;;;;;;6342598;22;20150;-65
2023/01/14 02:11:47;;;;;;;5.82;1.02;;;;;;;;;;6342816;22;20146;-64
2023/01/14 02:14:22;;;;;;;4.95;1.25;;;;;;;;;;6342413;22;20449;-65
2023/01/14 02:17:11;;;;;;;6.10;1.52;;;;;;;;;;6343099;22;20153;-64
2023/01/14 02:20:03;;;;;;;7.18;1.38;;;;;;;;;;6342338;22;20556;-64
2023/01/14 02:22:35;;;;;;;6.97;1.10;;;;;;;;;;6343210;22;20145;-64
2023/01/14 02:25:10;;;;;;;10.38;1.60;;;;;;;;;;6342706;22;20186;-64
2023/01/14 02:27:39;;;;;;;11.38;1.85;;;;;;;;;;6342513;22;20144;-65
2023/01/14 02:30:08;;;;;;;6.88;1.92;;;;;;;;;;6342663;22;20146;-65
2023/01/14 02:32:37;;;;;;;8.93;1.77;;;;;;;;;;6342363;22;20150;-65
2023/01/14 02:35:03;;;;;;;7.45;1.73;;;;;;;;;;6342131;22;20237;-65
2023/01/14 02:37:41;;;;;;;7.50;1.70;;;;;;;;;;6342545;22;20138;-65
2023/01/14 02:40:15;;;;;;;4.35;1.30;;;;;;;;;;6342479;22;20146;-66
2023/01/14 02:45:34;;;;;;;8.63;1.40;;;;;;;;;;6342273;22;20142;-65
2023/01/14 02:48:00;;;;;;;4.13;1.10;;;;;;;;;;6342343;22;20149;-66
2023/01/14 02:50:28;;;;;;;7.45;1.63;;;;;;;;;;6342017;22;20225;-65
2023/01/14 02:52:54;;;;;;;5.72;1.20;;;;;;;;;;6342442;22;20149;-65
2023/01/14 02:55:36;;;;;;;6.53;1.40;;;;;;;;;;6342058;22;20504;-66
2023/01/14 02:58:11;;;;;;;10.35;1.30;;;;;;;;;;6342527;22;20184;-65
2023/01/14 03:00:43;;;;;;;4.65;0.95;;;;;;;;;;6342355;22;20222;-65
2023/01/14 03:03:19;;;;;;;8.40;1.73;;;;;;;;;;6342137;22;20168;-63
2023/01/14 03:06:08;;;;;;;5.63;1.30;;;;;;;;;;6342310;22;20195;-64
2023/01/14 03:08:37;;;;;;;7.32;1.48;;;;;;;;;;6285106;22;20158;-64
2023/01/14 03:11:05;;;;;;;7.43;1.30;;;;;;;;;;6341757;22;20145;-64
2023/01/14 03:13:46;;;;;;;10.73;1.35;;;;;;;;;;6341777;22;20516;-65
2023/01/14 03:16:19;;;;;;;7.68;1.42;;;;;;;;;;6342212;22;20142;-64
2023/01/14 03:18:51;;;;;;;5.80;1.40;;;;;;;;;;6342301;22;20157;-64
2023/01/14 03:21:23;;;;;;;5.97;1.50;;;;;;;;;;6341875;22;20158;-65
2023/01/14 03:24:12;;;;;;;5.93;1.27;;;;;;;;;;6341827;22;20146;-66
2023/01/14 03:26:40;;;;;;;8.55;1.63;;;;;;;;;;6325826;22;20245;-65
2023/01/14 03:29:10;;;;;;;6.30;1.63;;;;;;;;;;6341803;22;20138;-65
2023/01/14 03:31:39;;;;;;;10.00;2.33;;;;;;;;;;6341717;22;20138;-65
2023/01/14 03:34:08;;;;;;;7.40;2.03;;;;;;;;;;6342120;22;20166;-63
2023/01/14 03:36:34;;;;;;;5.47;1.38;;;;;;;;;;6341829;22;20145;-65
2023/01/14 03:39:02;;;;;;;8.48;2.03;;;;;;;;;;6341689;22;20582;-65
2023/01/14 03:44:19;;;;;;;6.60;1.83;;;;;;;;;;6342165;22;20153;-62
2023/01/14 03:46:45;;;;;;;6.78;1.98;;;;;;;;;;6341832;22;20138;-64
2023/01/14 03:49:11;;;;;;;6.45;1.55;;;;;;;;;;6341858;22;20139;-63
2023/01/14 03:51:49;;;;;;;8.50;1.30;;;;;;;;;;6341723;22;20138;-64
2023/01/14 03:54:18;;;;;;;7.32;1.55;;;;;;;;;;6341416;22;20165;-63
2023/01/14 03:56:58;;;;;;;7.20;1.65;;;;;;;;;;6341971;22;20143;-65
2023/01/14 03:59:32;;;;;;;6.63;1.60;;;;;;;;;;6342054;22;20127;-64
2023/01/14 04:02:00;;;;;;;8.70;1.95;;;;;;;;;;6341753;22;20131;-64
2023/01/14 04:04:26;;;;;;;4.65;1.08;;;;;;;;;;6341847;22;20146;-64
2023/01/14 04:06:52;;;;;;;7.03;1.48;;;;;;;;;;6341464;22;20138;-64
2023/01/14 04:09:18;;;;;;;8.25;1.50;;;;;;;;;;6341889;22;20160;-64
2023/01/14 04:11:45;;;;;;;5.60;1.20;;;;;;;;;;6341401;22;20170;-64
2023/01/14 04:16:55;;;;;;;3.80;1.20;;;;;;;;;;6341493;22;20548;-65
2023/01/14 04:19:21;;;;;;;4.55;1.27;;;;;;;;;;6341375;22;20146;-65
2023/01/14 04:21:47;;;;;;;8.30;1.65;;;;;;;;;;6341083;22;20176;-66
2023/01/14 04:24:13;;;;;;;4.85;1.30;;;;;;;;;;6341306;22;20138;-65
2023/01/14 04:26:39;;;;;;;4.43;1.67;;;;;;;;;;6341521;22;20166;-65
2023/01/14 04:29:05;;;;;;;6.50;1.60;;;;;;;;;;6341399;22;20145;-64
2023/01/14 04:31:31;;;;;;;3.97;1.67;;;;;;;;;;6341198;22;20163;-63
2023/01/14 04:33:57;;;;;;;6.15;2.00;;;;;;;;;;6341584;22;20581;-64
2023/01/14 04:36:23;;;;;;;6.43;1.58;;;;;;;;;;6341626;22;20446;-64
2023/01/14 04:38:48;;;;;;;6.97;1.65;;;;;;;;;;6341871;22;20431;-65
2023/01/14 04:43:59;;;;;;;6.03;1.55;;;;;;;;;;6341582;22;20161;-63
2023/01/14 04:46:25;;;;;;;5.55;1.65;;;;;;;;;;6342103;22;20153;-63
2023/01/14 04:48:51;;;;;;;5.60;1.65;;;;;;;;;;6341337;22;20138;-63
2023/01/14 04:51:17;;;;;;;6.57;1.50;;;;;;;;;;6341504;22;20431;-64
2023/01/14 04:53:43;;;;;;;5.07;1.70;;;;;;;;;;6366266;22;20257;-64
2023/01/14 04:56:09;;;;;;;8.88;2.05;;;;;;;;;;6341507;22;20142;-65
2023/01/14 04:58:35;;;;;;;3.58;1.40;;;;;;;;;;6341718;22;20222;-65
2023/01/14 05:01:01;;;;;;;8.23;1.50;;;;;;;;;;6341016;22;20138;-64
2023/01/14 05:03:27;;;;;;;9.07;1.73;;;;;;;;;;6341266;22;20138;-66
2023/01/14 05:05:53;;;;;;;4.57;1.55;;;;;;;;;;6340969;22;20190;-65
2023/01/14 05:08:20;;;;;;;4.18;1.55;;;;;;;;;;6341695;22;20150;-66
2023/01/14 05:10:48;;;;;;;6.60;1.67;;;;;;;;;;6340980;22;20138;-65
2023/01/14 05:13:14;;;;;;;6.55;1.38;;;;;;;;;;6341407;22;20142;-65
2023/01/14 05:15:42;;;;;;;4.38;1.40;;;;;;;;;;6341775;22;20233;-65
2023/01/14 05:18:08;;;;;;;5.72;1.50;;;;;;;;;;6340919;22;20211;-64
2023/01/14 05:20:34;;;;;;;5.90;1.50;;;;;;;;;;6340943;22;20158;-64
2023/01/14 05:23:06;;;;;;;5.80;1.25;;;;;;;;;;6341283;22;20145;-65
2023/01/14 05:25:34;;;;;;;5.97;1.30;;;;;;;;;;6341311;22;20157;-65
2023/01/14 05:28:00;;;;;;;5.90;1.58;;;;;;;;;;6341281;22;20447;-64
2023/01/14 05:30:26;;;;;;;6.75;1.65;;;;;;;;;;6341109;22;20134;-64
2023/01/14 05:32:52;;;;;;;5.78;1.25;;;;;;;;;;6340899;22;20585;-64
2023/01/14 05:35:18;;;;;;;4.07;0.80;;;;;;;;;;6343333;22;20240;-64
2023/01/14 05:37:44;;;;;;;3.47;0.68;;;;;;;;;;6343076;22;20170;-64
2023/01/14 05:40:10;;;;;;;5.75;1.30;;;;;;;;;;6343313;22;20207;-63
2023/01/14 05:48:06;;;;;;;5.95;1.13;;;;;;;;;;6342784;22;20141;-64
2023/01/14 05:50:32;;;;;;;3.63;1.20;;;;;;;;;;6342680;22;20447;-64
2023/01/14 05:52:58;;;;;;;9.18;1.38;;;;;;;;;;6342610;22;20571;-65
2023/01/14 05:55:24;;;;;;;5.82;1.13;;;;;;;;;;6342543;22;20162;-64
2023/01/14 05:57:50;;;;;;;4.63;1.30;;;;;;;;;;6342503;22;20160;-64
2023/01/14 06:08:30;;;;;;;4.13;1.38;;;;;;;;;;6342615;22;20544;-65
2023/01/14 06:10:57;;;;;;;6.63;1.30;;;;;;;;;;6343202;22;20143;-65
2023/01/14 06:13:23;;;;;;;5.28;1.45;;;;;;;;;;6342666;22;20174;-65
2023/01/14 06:15:55;;;;;;;3.88;1.40;;;;;;;;;;6342448;22;20153;-65
2023/01/14 06:18:22;;;;;;;3.33;1.10;;;;;;;;;;6342754;22;20206;-64
2023/01/14 06:20:51;;;;;;;3.92;1.08;;;;;;;;;;6342632;22;20153;-63
2023/01/14 06:23:18;;;;;;;4.00;1.70;;;;;;;;;;6342294;22;20145;-65
2023/01/14 06:25:45;;;;;;;5.13;1.90;;;;;;;;;;6342528;22;20135;-65
2023/01/14 06:28:11;;;;;;;3.83;1.30;;;;;;;;;;6342217;22;20148;-65
2023/01/14 06:30:37;;;;;;;3.65;1.40;;;;;;;;;;6342329;22;20620;-65
2023/01/14 06:33:03;;;;;;;6.38;1.80;;;;;;;;;;6342205;22;20172;-65
2023/01/14 06:35:29;;;;;;;5.72;1.40;;;;;;;;;;6342181;22;20166;-65
2023/01/14 06:37:55;;;;;;;6.25;1.60;;;;;;;;;;6342271;22;20134;-65
2023/01/14 06:40:21;;;;;;;5.25;1.50;;;;;;;;;;6342134;22;20174;-66
2023/01/14 06:42:47;;;;;;;5.53;1.98;;;;;;;;;;6342108;22;20134;-66
2023/01/14 06:45:13;;;;;;;4.03;1.67;;;;;;;;;;6342087;22;20430;-66
2023/01/14 06:47:39;;;;;;;4.85;1.60;;;;;;;;;;6342164;22;20139;-66
2023/01/14 06:50:05;;;;;;;3.47;1.50;;;;;;;;;;6342997;22;20142;-65
2023/01/14 06:52:32;;;;;;;6.50;1.50;;;;;;;;;;6342045;22;20179;-65
2023/01/14 06:54:58;;;;;;;4.63;1.77;;;;;;;;;;6342063;22;20213;-65
2023/01/14 06:57:24;;;;;;;6.20;1.60;;;;;;;;;;6342364;22;20222;-65
2023/01/14 06:59:50;;;;;;;5.18;1.50;;;;;;;;;;6342375;22;20134;-64
2023/01/14 07:02:16;;;;;;;3.70;1.92;;;;;;;;;;6342144;22;20139;-65
2023/01/14 07:04:43;;;;;;;3.28;1.42;;;;;;;;;;6342190;22;20178;-64
2023/01/14 07:07:09;;;;;;;5.82;1.77;;;;;;;;;;6342102;22;20716;-65
2023/01/14 07:09:35;;;;;;;5.45;1.67;;;;;;;;;;6342030;22;20580;-65
2023/01/14 07:12:02;;;;;;;3.33;1.30;;;;;;;;;;6341836;22;20142;-65
2023/01/14 07:14:28;;;;;;;5.47;1.65;;;;;;;;;;6342534;22;20170;-64
2023/01/14 07:16:54;;;;;;;3.53;1.48;;;;;;;;;;6341850;22;20220;-64
2023/01/14 07:19:20;;;;;;;3.80;1.27;;;;;;;;;;6342258;22;20179;-65
2023/01/14 07:21:46;;;;;;;5.65;1.60;;;;;;;;;;6342325;22;20645;-63
2023/01/14 07:24:12;;;;;;;3.45;1.35;;;;;;;;;;6342244;22;20467;-63
2023/01/14 07:26:38;;;;;;;3.05;1.30;;;;;;;;;;6342670;22;20186;-64
2023/01/14 07:29:04;;;;;;;4.20;1.20;;;;;;;;;;6342081;22;20203;-65
2023/01/14 07:31:30;;;;;;;3.75;1.17;;;;;;;;;;6342063;22;20177;-64
2023/01/14 07:33:56;;;;;;;6.15;1.20;;;;;;;;;;6341765;22;20162;-64
2023/01/14 07:36:22;;;;;;;4.30;1.20;;;;;;;;;;6342311;22;20145;-64
2023/01/14 07:38:48;;;;;;;3.85;1.13;;;;;;;;;;6341746;22;20165;-64
2023/01/14 07:41:18;;;;;;;5.00;1.58;;;;;;;;;;6341986;22;20138;-64
2023/01/14 07:43:47;;;;;;;7.05;1.25;;;;;;;;;;6342234;22;20205;-65
2023/01/14 07:46:13;;;;;;;4.03;1.40;;;;;;;;;;6341705;22;20208;-64
2023/01/14 07:48:40;;;;;;;3.15;1.30;;;;;;;;;;6341681;22;20222;-64
2023/01/14 07:51:08;;;;;;;5.25;1.45;;;;;;;;;;6341787;22;20561;-63
2023/01/14 07:53:34;;;;;;;5.07;1.30;;;;;;;;;;6341833;22;20142;-64
2023/01/14 07:56:00;;;;;;;4.47;1.52;;;;;;;;;;6341554;22;20157;-64
2023/01/14 07:58:26;;;;;;;3.38;1.30;;;;;;;;;;6341397;22;20133;-63
2023/01/14 08:00:55;;;;;;;4.95;1.70;;;;;;;;;;6341756;22;20138;-64
2023/01/14 08:03:23;;;;;;;3.47;1.73;;;;;;;;;;6342203;22;20249;-64
2023/01/14 08:05:49;;;;;;;4.90;1.80;;;;;;;;;;6342898;22;20537;-63
2023/01/14 08:08:15;;;;;;;3.75;1.67;;;;;;;;;;6342138;22;20141;-64
2023/01/14 08:10:41;;;;;;;5.10;2.00;;;;;;;;;;6342253;22;20545;-65
2023/01/14 08:13:10;;;;;;;7.63;2.00;;;;;;;;;;6341561;22;20142;-64
2023/01/14 08:15:36;;;;;;;6.22;2.25;;;;;;;;;;6341773;22;20162;-64
2023/01/14 08:18:02;;;;;;;3.05;2.05;;;;;;;;;;6341686;22;20146;-64
2023/01/14 08:20:28;;;;;;;5.32;2.00;;;;;;;;;;6341618;22;20241;-63
2023/01/14 08:22:58;;;;;;;6.88;2.10;;;;;;;;;;6341741;22;20145;-64
2023/01/14 08:25:24;;;;;;;5.20;2.38;;;;;;;;;;6341333;22;20565;-64
2023/01/14 08:27:50;;;;;;;4.50;2.15;;;;;;;;;;6341260;22;20146;-64
2023/01/14 08:30:16;;;;;;;6.15;2.17;;;;;;;;;;6341311;22;20221;-63
2023/01/14 08:32:42;;;;;;;4.50;2.20;;;;;;;;;;6341354;22;20540;-64
2023/01/14 08:35:08;;;;;;;4.53;2.08;;;;;;;;;;6341463;22;20215;-64
2023/01/14 08:37:34;;;;;;;4.43;2.03;;;;;;;;;;6341618;22;20143;-65
2023/01/14 08:40:00;;;;;;;4.88;1.90;;;;;;;;;;6341187;22;20169;-66
2023/01/14 08:42:26;;;;;;;4.90;1.83;;;;;;;;;;6341722;22;20142;-65
2023/01/14 08:44:52;;;;;;;3.05;1.90;;;;;;;;;;6341435;22;20244;-66
2023/01/14 08:47:18;;;;;;;8.23;2.10;;;;;;;;;;6341333;22;20448;-66
2023/01/14 08:49:44;;;;;;;5.75;2.25;;;;;;;;;;6341573;22;20142;-65
2023/01/14 08:52:11;;;;;;;4.20;1.60;;;;;;;;;;6341503;22;20160;-65
2023/01/14 08:54:37;;;;;;;6.90;2.20;;;;;;;;;;6341128;22;20215;-65
2023/01/14 08:57:03;;;;;;;3.67;1.92;;;;;;;;;;6341181;22;20142;-65
2023/01/14 08:59:29;;;;;;;5.53;2.33;;;;;;;;;;6341471;22;20149;-65
2023/01/14 09:01:55;;;;;;;5.00;1.85;;;;;;;;;;6341578;22;20134;-65
2023/01/14 09:04:21;;;;;;;6.22;1.98;;;;;;;;;;6341511;22;20180;-64
2023/01/14 09:17:45;;;;;;;5.72;2.10;;;;;;;;;;6341727;22;20187;-64
2023/01/14 09:20:12;;;;;;;7.88;2.00;;;;;;;;;;6341358;22;20142;-65
2023/01/14 09:22:38;;;;;;;7.10;1.70;;;;;;;;;;6341135;22;20126;-65
2023/01/14 09:25:04;;;;;;;6.32;2.33;;;;;;;;;;6340940;22;20138;-65
2023/01/14 09:27:31;;;;;;;4.78;1.90;;;;;;;;;;6341800;22;20149;-65
2023/01/14 09:29:57;;;;;;;3.35;1.80;;;;;;;;;;6341324;22;20495;-65
2023/01/14 09:32:23;;;;;;;8.25;2.33;;;;;;;;;;6341091;22;20139;-64
2023/01/14 09:34:50;;;;;;;5.47;1.50;;;;;;;;;;6340921;22;20602;-66
2023/01/14 09:37:20;;;;;;;7.07;1.83;;;;;;;;;;6341218;22;20143;-64
2023/01/14 09:39:49;;;;;;;4.78;1.77;;;;;;;;;;6340843;22;20241;-65
2023/01/14 09:42:19;;;;;;;5.60;1.73;;;;;;;;;;6341296;22;20149;-65
2023/01/14 09:44:45;;;;;;;8.18;2.03;;;;;;;;;;6340821;22;20610;-65
2023/01/14 09:47:12;;;;;;;8.38;2.50;;;;;;;;;;6341198;22;20146;-65
2023/01/14 09:49:40;;;;;;;4.60;1.80;;;;;;;;;;6340865;22;20449;-65
2023/01/14 09:52:08;;;;;;;6.45;2.17;;;;;;;;;;6341125;22;20158;-65
2023/01/14 09:54:45;;;;;;;4.78;1.85;;;;;;;;;;6341071;22;20500;-65
2023/01/14 09:57:14;;;;;;;7.28;2.13;;;;;;;;;;6341260;22;20126;-65
2023/01/14 09:59:45;;;;;;;7.90;2.28;;;;;;;;;;6340616;22;20225;-66
2023/01/14 10:02:11;;;;;;;6.57;2.05;;;;;;;;;;6341025;22;20127;-66
2023/01/14 10:04:43;;;;;;;6.22;1.83;;;;;;;;;;6340548;22;20569;-66
2023/01/14 10:07:11;;;;;;;8.18;2.20;;;;;;;;;;6340788;22;20607;-66
2023/01/14 10:09:41;;;;;;;7.60;2.25;;;;;;;;;;6340904;22;20157;-65
2023/01/14 10:12:10;;;;;;;6.28;1.52;;;;;;;;;;6341237;22;20138;-65
2023/01/14 10:14:41;;;;;;;4.28;1.50;;;;;;;;;;6340660;22;20166;-64
2023/01/14 10:17:09;;;;;;;6.88;2.15;;;;;;;;;;6341165;22;20194;-65
2023/01/14 10:19:41;;;;;;;6.25;1.65;;;;;;;;;;6340920;22;20153;-65
2023/01/14 10:22:10;;;;;;;5.78;2.40;;;;;;;;;;6342297;22;20180;-65
2023/01/14 10:24:36;;;;;;;6.75;2.38;;;;;;;;;;6342839;22;20497;-64
2023/01/14 10:27:02;;;;;;;5.82;2.15;;;;;;;;;;6342618;22;20448;-65
2023/01/14 10:29:30;;;;;;;7.32;2.03;;;;;;;;;;6342689;22;20199;-64
2023/01/14 10:32:00;;;;;;;8.15;2.53;;;;;;;;;;6342804;22;20191;-63
2023/01/14 10:34:29;;;;;;;8.00;2.22;;;;;;;;;;6342506;22;20166;-65
2023/01/14 10:36:55;;;;;;;6.25;2.20;;;;;;;;;;6342711;22;20142;-66
2023/01/14 10:39:21;;;;;;;8.35;2.58;;;;;;;;;;6342589;22;20203;-65
2023/01/14 10:41:51;;;;;;;5.82;2.55;;;;;;;;;;6342242;22;20146;-65
2023/01/14 10:44:19;;;;;;;7.75;2.40;;;;;;;;;;6342119;22;20552;-65
2023/01/14 10:46:46;;;;;;;7.18;2.17;;;;;;;;;;6342668;22;20437;-64
2023/01/14 10:49:15;;;;;;;9.07;3.10;;;;;;;;;;6342281;22;20173;-65
2023/01/14 10:51:47;;;;;;;8.07;2.65;;;;;;;;;;6342238;22;20152;-65
2023/01/14 10:54:13;;;;;;;10.55;2.55;;;;;;;;;;6342589;22;20215;-63
2023/01/14 10:56:41;;;;;;;7.53;2.38;;;;;;;;;;6342282;22;20213;-65
2023/01/14 10:59:27;;;;;;;11.52;2.75;;;;;;;;;;6344246;22;20138;-64
2023/01/14 11:01:54;;;;;;;9.70;2.55;;;;;;;;;;6343095;22;20428;-65
2023/01/14 11:04:22;;;;;;;11.50;3.08;;;;;;;;;;6342864;22;20511;-65
2023/01/14 11:06:48;;;;;;;7.72;3.20;;;;;;;;;;6343163;22;20150;-65
2023/01/14 11:09:23;;;;;;;6.63;2.65;;;;;;;;;;6343084;22;20215;-65
2023/01/14 11:11:49;;;;;;;5.32;2.90;;;;;;;;;;6343637;22;20134;-65
2023/01/14 11:14:37;;;;;;;9.25;2.60;;;;;;;;;;6342684;22;20170;-65
2023/01/14 11:17:23;;;;;;;7.50;3.20;;;;;;;;;;6342262;22;20134;-65
2023/01/14 11:19:49;;;;;;;10.65;2.97;;;;;;;;;;6341770;22;20548;-65
2023/01/14 11:22:15;;;;;;;9.25;3.35;;;;;;;;;;6341840;22;20158;-64
2023/01/14 11:24:44;;;;;;;7.38;3.08;;;;;;;;;;6342590;22;20206;-64
2023/01/14 11:27:13;;;;;;;9.40;2.78;;;;;;;;;;6342887;22;20213;-63
2023/01/14 11:29:44;;;;;;;7.50;3.10;;;;;;;;;;6342729;22;20185;-64
2023/01/14 11:32:11;;;;;;;10.07;2.90;;;;;;;;;;6342177;22;20433;-64
2023/01/14 11:34:40;;;;;;;10.70;2.90;;;;;;;;;;6342201;22;20318;-64
2023/01/14 11:37:08;;;;;;;12.05;3.10;;;;;;;;;;6342118;22;20146;-64
2023/01/14 11:39:35;;;;;;;7.53;3.33;;;;;;;;;;6342382;22;20138;-64
2023/01/14 11:42:03;;;;;;;7.60;2.58;;;;;;;;;;6342187;22;20237;-65
2023/01/14 11:44:29;;;;;;;10.40;3.78;;;;;;;;;;6342090;22;20146;-65
2023/01/14 11:47:12;;;;;;;7.53;2.90;;;;;;;;;;6342014;22;20174;-64
2023/01/14 11:49:38;;;;;;;8.13;2.85;;;;;;;;;;6342185;22;20201;-64
2023/01/14 11:52:05;;;;;;;9.07;2.80;;;;;;;;;;6342063;22;20557;-63
2023/01/14 11:54:38;;;;;;;9.77;3.15;;;;;;;;;;6342022;22;20166;-66
2023/01/14 11:57:05;;;;;;;7.85;3.20;;;;;;;;;;6341919;22;20138;-66
2023/01/14 11:59:36;;;;;;;8.07;2.97;;;;;;;;;;6341579;22;20167;-65
2023/01/14 12:02:02;;;;;;;14.02;3.05;;;;;;;;;;6341574;22;20426;-65
2023/01/14 12:04:39;;;;;;;6.88;2.65;;;;;;;;;;6342180;22;20177;-65
2023/01/14 12:07:07;;;;;;;7.28;3.08;;;;;;;;;;6342091;22;20126;-65
2023/01/14 12:09:33;;;;;;;10.63;3.05;;;;;;;;;;6342845;22;20157;-65
2023/01/14 12:12:02;;;;;;;10.52;3.33;;;;;;;;;;6341836;22;20233;-65
2023/01/14 12:17:25;;;;;;;6.50;2.70;;;;;;;;;;6341614;22;20149;-64
2023/01/14 12:19:53;;;;;;;8.32;2.70;;;;;;;;;;6341997;22;20142;-65
2023/01/14 12:22:24;;;;;;;12.35;3.70;;;;;;;;;;6341518;22;20204;-65
2023/01/14 12:25:03;;;;;;;12.15;3.00;;;;;;;;;;6342026;22;20146;-66
2023/01/14 12:27:45;;;;;;;9.40;2.88;;;;;;;;;;6341337;22;20205;-65
2023/01/14 12:30:14;;;;;;;8.68;2.90;;;;;;;;;;6341624;22;20142;-65
2023/01/14 12:32:42;;;;;;;7.32;2.90;;;;;;;;;;6341312;22;20145;-65
2023/01/14 12:35:13;;;;;;;10.52;3.30;;;;;;;;;;6341637;22;20158;-66
2023/01/14 12:37:51;;;;;;;9.82;3.10;;;;;;;;;;6341332;22;20126;-66
2023/01/14 12:46:11;;;;;;;8.20;2.92;;;;;;;;;;6341218;22;20146;-64
2023/01/14 12:48:37;;;;;;;7.93;2.65;;;;;;;;;;6341493;22;20171;-66
2023/01/14 12:51:06;;;;;;;14.45;3.17;;;;;;;;;;6341170;22;20178;-65
2023/01/14 12:53:35;;;;;;;8.30;2.60;;;;;;;;;;6341064;22;20142;-63
2023/01/14 12:56:03;;;;;;;7.97;2.42;;;;;;;;;;6341541;22;20152;-64
2023/01/14 12:58:30;;;;;;;10.85;2.88;;;;;;;;;;6341685;22;20146;-64
2023/01/14 13:01:07;;;;;;;6.00;1.98;;;;;;;;;;6341046;22;20145;-64
2023/01/14 13:03:35;;;;;;;11.45;3.15;;;;;;;;;;6341083;22;20138;-63
2023/01/14 13:06:10;;;;;;;10.13;3.55;;;;;;;;;;6341203;22;20149;-65
2023/01/14 13:08:37;;;;;;;4.63;1.65;;;;;;;;;;6341276;22;20140;-65
2023/01/14 13:11:17;;;;;;;7.75;1.83;;;;;;;;;;6341065;22;20153;-66
2023/01/14 13:13:49;;;;;;;5.93;2.00;;;;;;;;;;6342358;22;20150;-65
2023/01/14 13:16:32;;;;;;;8.38;2.20;;;;;;;;;;6341398;22;20145;-65
2023/01/14 13:18:59;;;;;;;6.10;2.00;;;;;;;;;;6341693;22;20223;-65
2023/01/14 13:21:44;;;;;;;7.38;1.98;;;;;;;;;;6340944;22;20169;-66
2023/01/14 13:24:27;;;;;;;5.90;2.05;;;;;;;;;;6341058;22;20638;-65
2023/01/14 13:26:54;;;;;;;7.13;2.20;;;;;;;;;;6341236;22;20135;-65
2023/01/14 13:29:22;;;;;;;5.53;1.90;;;;;;;;;;6341366;22;20178;-65
2023/01/14 13:31:48;;;;;;;9.13;2.20;;;;;;;;;;6341197;22;20142;-66
2023/01/14 13:34:23;;;;;;;8.48;1.73;;;;;;;;;;6340829;22;20458;-66
2023/01/14 13:37:04;;;;;;;8.13;2.30;;;;;;;;;;6341202;22;20152;-64
2023/01/14 13:39:31;;;;;;;6.63;2.08;;;;;;;;;;6340908;22;20196;-65
2023/01/14 13:41:59;;;;;;;5.82;1.67;;;;;;;;;;6341217;22;20142;-66
2023/01/14 13:44:25;;;;;;;6.75;1.77;;;;;;;;;;6341215;22;20146;-64
2023/01/14 13:46:53;;;;;;;5.95;1.65;;;;;;;;;;6341072;22;20217;-64
2023/01/14 13:49:40;;;;;;;10.23;2.03;;;;;;;;;;6341190;22;20533;-64
2023/01/14 13:52:14;;;;;;;7.43;2.08;;;;;;;;;;6340775;22;20587;-64
2023/01/14 13:54:40;;;;;;;6.63;1.52;;;;;;;;;;6341803;22;20495;-65
2023/01/14 13:57:24;;;;;;;4.40;1.30;;;;;;;;;;6343225;22;20169;-65
2023/01/14 13:59:54;;;;;;;6.05;1.83;;;;;;;;;;6343155;22;20142;-64
2023/01/14 14:02:39;;;;;;;6.22;1.58;;;;;;;;;;6343176;22;20234;-64
2023/01/14 14:05:14;;;;;;;7.25;1.70;;;;;;;;;;6343337;22;20161;-65
2023/01/14 14:07:43;;;;;;;7.00;1.50;;;;;;;;;;6342991;22;20232;-65
2023/01/14 14:10:10;;;;;;;7.40;1.75;;;;;;;;;;6342977;22;20153;-64
2023/01/14 14:15:25;;;;;;;4.55;1.33;;;;;;;;;;6342701;22;20629;-65
2023/01/14 14:17:58;;;;;;;8.80;1.92;;;;;;;;;;6343120;22;20127;-65
2023/01/14 14:20:27;;;;;;;4.90;1.60;;;;;;;;;;6342844;22;20157;-65
2023/01/14 14:23:00;;;;;;;7.10;1.65;;;;;;;;;;6342634;22;20139;-65
2023/01/14 14:25:40;;;;;;;6.78;1.77;;;;;;;;;;6342981;22;20142;-66
2023/01/14 14:28:16;;;;;;;6.32;1.60;;;;;;;;;;6342878;22;20146;-65
2023/01/14 14:30:47;;;;;;;6.88;1.90;;;;;;;;;;6343654;22;20134;-65
2023/01/14 14:33:30;;;;;;;5.47;1.80;;;;;;;;;;6342921;22;20451;-65
2023/01/14 14:35:56;;;;;;;4.22;1.63;;;;;;;;;;6343131;22;20611;-65
2023/01/14 14:38:22;;;;;;;6.05;1.45;;;;;;;;;;6343127;22;20225;-64
2023/01/14 14:40:48;;;;;;;6.47;1.45;;;;;;;;;;6343212;22;20610;-66
2023/01/14 14:43:24;;;;;;;4.50;1.40;;;;;;;;;;6343118;22;20142;-64
2023/01/14 14:46:01;;;;;;;7.38;1.83;;;;;;;;;;6342637;22;20587;-64
2023/01/14 14:48:28;;;;;;;6.57;1.88;;;;;;;;;;6344190;22;20195;-65
2023/01/14 14:50:54;;;;;;;7.35;1.60;;;;;;;;;;6346231;22;20154;-64
2023/01/14 14:53:30;;;;;;;7.05;1.50;;;;;;;;;;6343087;22;20142;-64
2023/01/14 14:55:57;;;;;;;6.20;2.13;;;;;;;;;;6344063;22;20226;-65
2023/01/14 14:58:23;;;;;;;8.50;2.50;;;;;;;;;;6343534;22;20134;-65
2023/01/14 15:01:00;;;;;;;6.22;2.17;;;;;;;;;;6344038;22;20142;-64
2023/01/14 15:03:30;;;;;;;5.72;1.80;;;;;;;;;;6343469;22;20210;-65
2023/01/14 15:05:56;;;;;;;7.10;1.75;;;;;;;;;;6342479;22;20146;-65
2023/01/14 15:08:25;;;;;;;4.18;1.70;;;;;;;;;;6342011;22;20142;-65
2023/01/14 15:10:51;;;;;;;6.05;1.58;;;;;;;;;;6342467;22;20146;-64
2023/01/14 15:13:27;;;;;;;6.25;2.30;;;;;;;;;;6342329;22;20142;-65
2023/01/14 15:16:17;;;;;;;6.53;2.80;;;;;;;;;;6342538;22;20219;-65
2023/01/14 15:18:45;;;;;;;6.88;1.85;;;;;;;;;;6326464;22;20182;-65
2023/01/14 15:21:12;;;;;;;7.28;1.88;;;;;;;;;;6342200;22;20201;-66
2023/01/14 15:23:41;;;;;;;7.60;1.77;;;;;;;;;;6342339;22;20143;-65
2023/01/14 15:26:08;;;;;;;5.40;2.10;;;;;;;;;;6341979;22;20195;-65
2023/01/14 15:28:34;;;;;;;7.43;2.22;;;;;;;;;;6342315;22;20147;-66
2023/01/14 15:31:01;;;;;;;5.10;2.03;;;;;;;;;;6342412;22;20193;-66
2023/01/14 15:33:29;;;;;;;7.82;2.05;;;;;;;;;;6342105;22;20213;-66
2023/01/14 15:35:57;;;;;;;6.53;2.03;;;;;;;;;;6342002;22;20177;-65
2023/01/14 15:38:23;;;;;;;5.55;1.70;;;;;;;;;;6342238;22;20143;-65
2023/01/14 15:40:51;;;;;;;5.05;1.60;;;;;;;;;;6342289;22;20539;-64